Terminal Aerodrome Forecast
Issued by NWS

Home | Current Version | Previous Version | Text Only | Print | Product List | Glossary On
Versions: 1 2 3 4 5 6 7 8 9 10 11 12 13 14 15 16 17 18 19 20 21 22 23 24 25 26 27 28 29 30 31 32 33 34 35 36 37 38 39 40 41 42 43 44
000
FTUS44 KBMX 030022 AAA
TAFASN
TAF AMD
KASN 030022Z 0300/0324 24006KT 4SM SHRA VCTS BKN025CB OVC100
     FM030200 24003KT P6SM VCSH SCT025 OVC100
     FM030600 28003KT 5SM BR SCT007 BKN010
     FM030900 28003KT 4SM BR BKN007
     FM031700 29008KT P6SM SCT015 BKN050=

USA.gov is the U.S. government's official web portal to all federal, state and local government web resources and services.